createdAt,value
2023-03-20T00:02:26.470Z,8.08
2023-03-20T00:04:53.000Z,8.07
2023-03-20T00:07:21.702Z,8.05
2023-03-20T00:09:48.824Z,8.01
2023-03-20T00:12:21.796Z,8.00
2023-03-20T00:14:51.028Z,7.99
2023-03-20T00:17:20.525Z,7.99
2023-03-20T00:19:49.269Z,7.96
2023-03-20T00:22:18.366Z,7.93
2023-03-20T00:24:47.853Z,7.90
2023-03-20T00:27:19.002Z,7.90
2023-03-20T00:29:48.845Z,7.90
2023-03-20T00:32:15.782Z,7.89
2023-03-20T00:34:42.636Z,7.88
2023-03-20T00:37:12.857Z,7.87
2023-03-20T00:39:40.871Z,7.86
2023-03-20T00:42:18.101Z,7.87
2023-03-20T00:44:55.542Z,7.85
2023-03-20T00:47:24.780Z,7.83
2023-03-20T00:49:55.329Z,7.81
2023-03-20T00:52:23.073Z,7.78
2023-03-20T00:54:51.520Z,7.75
2023-03-20T00:57:23.537Z,7.75
2023-03-20T00:59:58.340Z,7.73
2023-03-20T01:02:28.180Z,7.71
2023-03-20T01:04:55.326Z,7.70
2023-03-20T01:07:24.345Z,7.69
2023-03-20T01:26:42.415Z,7.33
2023-03-20T01:29:21.031Z,7.30
2023-03-20T01:31:50.734Z,7.28
2023-03-20T01:34:22.041Z,7.26
2023-03-20T01:36:53.576Z,7.28
2023-03-20T01:39:25.389Z,7.27
2023-03-20T01:41:56.593Z,7.29
2023-03-20T01:44:29.210Z,7.31
2023-03-20T01:47:01.881Z,7.33
2023-03-20T01:49:32.354Z,7.35
2023-03-20T01:52:06.537Z,7.36
2023-03-20T01:54:40.974Z,7.36
2023-03-20T01:57:16.575Z,7.37
2023-03-20T01:59:49.384Z,7.41
2023-03-20T02:02:22.866Z,7.42
2023-03-20T02:04:57.137Z,7.42
2023-03-20T02:07:25.850Z,7.42
2023-03-20T02:10:36.758Z,7.46
2023-03-20T02:14:11.760Z,7.49
2023-03-20T02:17:22.338Z,7.49
2023-03-20T02:20:57.104Z,7.49
2023-03-20T02:24:05.067Z,7.49
2023-03-20T02:26:54.546Z,7.49
2023-03-20T02:29:22.667Z,7.47
2023-03-20T02:32:28.722Z,7.46
2023-03-20T02:35:07.956Z,7.43
2023-03-20T02:37:48.436Z,7.42
2023-03-20T02:40:22.023Z,7.41
2023-03-20T02:43:13.723Z,7.38
2023-03-20T02:45:48.295Z,7.38
2023-03-20T02:48:33.794Z,7.37
2023-03-20T02:51:12.194Z,7.37
2023-03-20T02:53:54.237Z,7.35
2023-03-20T02:56:41.563Z,7.35
2023-03-20T02:59:20.213Z,7.29
2023-03-20T03:01:55.713Z,7.32
2023-03-20T03:04:30.808Z,7.34
2023-03-20T03:07:04.065Z,7.34
2023-03-20T03:09:39.126Z,7.34
2023-03-20T03:12:20.753Z,7.40
2023-03-20T03:14:56.511Z,7.35
2023-03-20T03:17:29.637Z,7.37
2023-03-20T03:20:12.104Z,7.35
2023-03-20T03:22:44.728Z,7.33
2023-03-20T03:25:13.681Z,7.30
2023-03-20T03:27:46.134Z,7.31
2023-03-20T03:30:34.534Z,7.31
2023-03-20T03:33:10.231Z,7.26
2023-03-20T03:35:39.088Z,7.25
2023-03-20T03:38:27.696Z,7.28
2023-03-20T03:41:31.733Z,7.29
2023-03-20T03:44:21.036Z,7.27
2023-03-20T03:47:03.688Z,7.22
2023-03-20T03:49:37.426Z,7.19
2023-03-20T03:52:21.295Z,7.18
2023-03-20T03:54:56.979Z,7.19
2023-03-20T04:35:39.281Z,6.89
2023-03-20T04:38:14.225Z,6.92
2023-03-20T04:40:43.995Z,6.90
2023-03-20T04:43:14.951Z,6.94
2023-03-20T04:45:43.514Z,6.97
2023-03-20T04:48:11.945Z,6.98
2023-03-20T04:50:40.381Z,6.98
2023-03-20T04:53:09.090Z,6.98
2023-03-20T04:55:37.764Z,7.00
2023-03-20T04:58:05.865Z,6.98
2023-03-20T05:00:34.584Z,6.96
2023-03-20T05:03:05.354Z,7.00
2023-03-20T05:05:34.461Z,7.00
2023-03-20T05:08:03.212Z,6.99
2023-03-20T05:10:34.924Z,7.00
2023-03-20T05:13:11.729Z,7.02
2023-03-20T05:16:01.243Z,7.04
2023-03-20T05:18:45.594Z,7.07
2023-03-20T05:21:32.235Z,7.10
2023-03-20T05:24:13.318Z,7.16
2023-03-20T05:27:02.363Z,7.22
2023-03-20T05:29:56.507Z,7.29
2023-03-20T05:32:57.252Z,7.34
2023-03-20T05:35:37.212Z,7.39
2023-03-20T05:38:46.636Z,7.48
2023-03-20T05:41:37.796Z,7.53
2023-03-20T05:44:31.777Z,7.58
2023-03-20T05:47:18.793Z,7.63
2023-03-20T05:49:59.816Z,7.68
2023-03-20T05:52:45.824Z,7.71
2023-03-20T05:55:22.129Z,7.78
2023-03-20T05:58:12.192Z,7.82
2023-03-20T06:00:59.258Z,7.87
2023-03-20T06:03:46.851Z,7.91
2023-03-20T06:06:17.824Z,7.95
2023-03-20T06:08:49.270Z,7.99
2023-03-20T06:11:21.283Z,8.00
2023-03-20T06:13:51.246Z,8.02
2023-03-20T06:16:23.307Z,8.00
2023-03-20T06:18:52.049Z,8.01
2023-03-20T06:21:23.466Z,8.02
2023-03-20T06:23:52.116Z,8.04
2023-03-20T06:26:29.036Z,8.06
2023-03-20T06:29:05.141Z,8.08
2023-03-20T06:31:34.920Z,8.10
2023-03-20T06:34:05.062Z,8.11
2023-03-20T06:36:38.198Z,8.13
2023-03-20T06:39:14.259Z,8.15
2023-03-20T06:41:58.244Z,8.17
2023-03-20T06:45:03.817Z,8.21
2023-03-20T06:48:02.252Z,8.23
2023-03-20T06:50:32.680Z,8.25
2023-03-20T06:53:00.900Z,8.29
2023-03-20T06:55:38.531Z,8.34
2023-03-20T06:58:13.883Z,8.39
2023-03-20T07:00:42.268Z,8.45
2023-03-20T07:03:13.611Z,8.48
2023-03-20T07:05:47.680Z,8.54
2023-03-20T07:08:15.913Z,8.59
2023-03-20T07:10:43.789Z,8.63
2023-03-20T07:13:14.420Z,8.68
2023-03-20T07:15:57.544Z,8.74
2023-03-20T07:18:33.166Z,8.81
2023-03-20T07:21:10.104Z,8.88
2023-03-20T07:23:39.234Z,8.96
2023-03-20T07:26:11.407Z,9.03
2023-03-20T07:28:42.239Z,9.12
2023-03-20T07:31:41.839Z,9.23
2023-03-20T07:34:20.585Z,9.34
2023-03-20T07:36:48.915Z,9.44
2023-03-20T07:39:22.589Z,9.50
2023-03-20T07:42:24.685Z,9.58
2023-03-20T07:45:24.340Z,9.64
2023-03-20T07:47:59.273Z,9.68
2023-03-20T07:50:49.858Z,9.74
2023-03-20T08:04:49.192Z,9.93
2023-03-20T08:07:17.958Z,9.94
2023-03-20T08:09:53.088Z,9.97
2023-03-20T08:12:21.665Z,10.02
2023-03-20T08:14:49.986Z,10.05
2023-03-20T08:17:22.351Z,10.10
2023-03-20T08:20:33.409Z,10.20
2023-03-20T08:23:05.108Z,10.39
2023-03-20T08:25:33.604Z,10.55
2023-03-20T08:28:02.058Z,10.60
2023-03-20T08:30:30.322Z,10.61
2023-03-20T08:33:00.906Z,10.76
2023-03-20T08:35:33.609Z,10.80
2023-03-20T08:38:02.318Z,10.78
2023-03-20T08:40:36.407Z,10.75
2023-03-20T08:43:05.706Z,10.69
2023-03-20T08:45:34.279Z,10.68
2023-03-20T08:48:05.171Z,10.64
2023-03-20T08:50:33.371Z,10.61
2023-03-20T08:53:01.472Z,10.57
2023-03-20T08:55:32.202Z,10.56
2023-03-20T08:58:02.668Z,10.56
2023-03-20T09:00:31.334Z,10.56
2023-03-20T09:03:04.439Z,10.56
2023-03-20T09:05:34.138Z,10.60
2023-03-20T09:08:07.701Z,10.63
2023-03-20T09:10:38.126Z,10.66
2023-03-20T09:13:25.328Z,10.71
2023-03-20T09:15:55.210Z,10.74
2023-03-20T09:18:24.044Z,10.78
2023-03-20T09:20:52.208Z,10.79
2023-03-20T09:23:20.373Z,10.84
2023-03-20T09:25:56.726Z,10.88
2023-03-20T09:28:24.932Z,10.90
2023-03-20T09:30:57.301Z,10.92
2023-03-20T09:33:30.366Z,10.93
2023-03-20T09:36:00.724Z,10.95
2023-03-20T09:38:28.995Z,10.96
2023-03-20T09:41:02.696Z,10.98
2023-03-20T09:44:08.546Z,11.02
2023-03-20T09:47:16.531Z,11.07
2023-03-20T09:50:09.599Z,11.11
2023-03-20T09:52:43.560Z,11.15
2023-03-20T09:55:21.852Z,11.19
2023-03-20T09:57:53.920Z,11.22
2023-03-20T10:00:26.623Z,11.23
2023-03-20T10:02:59.676Z,11.24
2023-03-20T10:05:58.015Z,11.21
2023-03-20T10:08:30.414Z,11.21
2023-03-20T10:11:10.315Z,11.19
2023-03-20T10:13:38.384Z,11.20
2023-03-20T10:16:43.559Z,11.17
2023-03-20T10:19:18.785Z,11.13
2023-03-20T10:21:54.018Z,11.12
2023-03-20T10:24:39.269Z,11.12
2023-03-20T10:27:26.951Z,11.19
2023-03-20T10:30:24.187Z,11.21
2023-03-20T10:33:26.737Z,11.23
2023-03-20T10:36:08.332Z,11.23
2023-03-20T10:38:53.804Z,11.23
2023-03-20T10:41:28.853Z,11.24
2023-03-20T10:43:59.969Z,11.22
2023-03-20T10:46:44.306Z,11.19
2023-03-20T10:49:23.526Z,11.20
2023-03-20T10:51:54.909Z,11.18
2023-03-20T10:54:41.217Z,11.17
2023-03-20T10:57:23.733Z,11.17
2023-03-20T10:59:59.362Z,11.19
2023-03-20T11:02:34.742Z,11.17
2023-03-20T11:05:20.374Z,11.18
2023-03-20T11:07:52.890Z,11.15
2023-03-20T11:10:26.265Z,11.15
2023-03-20T11:12:56.485Z,11.13
2023-03-20T11:15:33.954Z,11.24
2023-03-20T11:18:07.877Z,11.23
2023-03-20T11:20:43.772Z,11.20
2023-03-20T11:23:17.958Z,11.21
2023-03-20T11:26:15.136Z,11.23
2023-03-20T11:28:59.817Z,11.23
2023-03-20T11:31:41.780Z,11.23
2023-03-20T11:34:15.509Z,11.24
2023-03-20T11:37:13.531Z,11.25
2023-03-20T11:39:58.360Z,11.28
2023-03-20T11:42:31.662Z,11.29
2023-03-20T11:45:16.139Z,11.33
2023-03-20T11:47:51.470Z,11.34
2023-03-20T11:50:36.354Z,11.35
2023-03-20T11:53:22.761Z,11.37
2023-03-20T11:56:13.822Z,11.39
2023-03-20T11:58:56.334Z,11.41
2023-03-20T12:01:31.209Z,11.43
2023-03-20T12:04:21.994Z,11.44
2023-03-20T12:07:01.891Z,11.46
2023-03-20T12:09:42.668Z,11.48
2023-03-20T12:12:24.579Z,11.50
2023-03-20T12:15:04.183Z,11.54
2023-03-20T12:36:40.566Z,11.75
2023-03-20T12:39:47.458Z,11.77
2023-03-20T12:42:46.054Z,11.81
2023-03-20T12:45:34.346Z,11.90
2023-03-20T12:48:40.809Z,11.93
2023-03-20T12:51:39.788Z,11.98
2023-03-20T12:54:33.085Z,12.00
2023-03-20T12:57:25.384Z,11.99
2023-03-20T13:00:21.825Z,12.01
2023-03-20T13:03:55.436Z,12.00
2023-03-20T13:06:43.020Z,12.01
2023-03-20T13:31:03.407Z,11.84
2023-03-20T13:34:18.302Z,11.83
2023-03-20T13:41:22.139Z,11.90
2023-03-20T13:43:59.235Z,11.93
2023-03-20T13:46:35.911Z,11.98
2023-03-20T13:49:22.075Z,12.00
2023-03-20T13:52:02.678Z,12.04
2023-03-20T13:55:10.953Z,12.06
2023-03-20T13:57:45.630Z,12.10
2023-03-20T14:00:40.822Z,12.10
2023-03-20T14:03:31.681Z,12.07
2023-03-20T14:06:14.733Z,12.03
2023-03-20T14:08:49.012Z,12.00
2023-03-20T14:11:21.487Z,12.10
2023-03-20T14:13:54.956Z,12.15
2023-03-20T14:16:22.130Z,12.19
2023-03-20T14:19:24.327Z,12.27
2023-03-20T14:21:56.791Z,12.33
2023-03-20T14:24:27.616Z,12.36
2023-03-20T14:27:00.866Z,12.46
2023-03-20T14:29:30.878Z,12.75
2023-03-20T14:32:05.977Z,13.05
2023-03-20T14:39:19.527Z,13.49
2023-03-20T14:42:15.280Z,13.76
2023-03-20T14:45:26.042Z,13.89
2023-03-20T14:48:15.801Z,14.05
2023-03-20T14:51:01.462Z,14.11
2023-03-20T14:53:32.751Z,14.09
2023-03-20T14:56:12.764Z,14.00
2023-03-20T14:58:39.583Z,13.79
2023-03-20T15:01:19.954Z,13.63
2023-03-20T15:04:30.580Z,13.49
2023-03-20T15:07:07.510Z,13.35
2023-03-20T15:09:39.587Z,13.26
2023-03-20T15:12:11.529Z,13.18
2023-03-20T15:15:02.994Z,13.06
2023-03-20T15:18:21.953Z,13.02
2023-03-20T15:20:51.755Z,12.97
2023-03-20T15:23:18.395Z,13.08
2023-03-20T15:25:47.506Z,13.27
2023-03-20T15:28:21.593Z,13.52
2023-03-20T15:30:57.981Z,13.69
2023-03-20T15:33:28.689Z,13.83
2023-03-20T15:35:55.827Z,13.90
2023-03-20T15:42:27.968Z,14.03
2023-03-20T15:48:35.351Z,13.60
2023-03-20T15:51:04.453Z,13.51
2023-03-20T15:53:44.961Z,13.45
2023-03-20T15:56:31.334Z,13.26
2023-03-20T15:58:58.535Z,13.13
2023-03-20T16:01:49.728Z,13.01
2023-03-20T16:04:20.859Z,12.82
2023-03-20T16:07:00.608Z,12.73
2023-03-20T16:09:30.326Z,12.64
2023-03-20T16:12:00.618Z,12.63
2023-03-20T16:14:34.335Z,12.58
2023-03-20T16:17:02.930Z,12.50
2023-03-20T16:19:30.054Z,12.46
2023-03-20T16:22:00.633Z,12.51
2023-03-20T16:24:36.147Z,12.46
2023-03-20T16:27:08.286Z,12.41
2023-03-20T16:29:43.202Z,12.35
2023-03-20T16:32:42.998Z,12.30
2023-03-20T16:35:25.464Z,12.27
2023-03-20T16:37:58.215Z,12.17
2023-03-20T16:40:43.087Z,12.20
2023-03-20T16:43:18.279Z,12.18
2023-03-20T16:45:55.915Z,12.16
2023-03-20T17:04:14.923Z,12.09
2023-03-20T17:18:13.096Z,12.04
2023-03-20T17:20:41.346Z,12.02
2023-03-20T18:48:02.853Z,11.54
2023-03-20T18:50:52.435Z,11.50
2023-03-20T18:53:21.313Z,11.50
2023-03-20T19:00:26.956Z,11.47
2023-03-20T19:06:41.789Z,11.44
2023-03-20T19:18:05.606Z,11.39
2023-03-20T20:34:28.319Z,11.14
2023-03-20T20:37:30.531Z,11.10
2023-03-20T20:39:32.345Z,11.10
2023-03-20T20:42:03.084Z,11.06
2023-03-20T20:44:30.822Z,11.03
2023-03-20T21:05:37.925Z,10.91
2023-03-20T21:08:09.097Z,10.90
2023-03-20T21:10:37.318Z,10.89
2023-03-20T21:13:05.527Z,10.88
2023-03-20T21:15:33.778Z,10.87
2023-03-20T21:18:02.092Z,10.86
2023-03-20T21:20:31.131Z,10.84
2023-03-20T21:22:59.446Z,10.84
2023-03-20T21:25:39.535Z,10.84
2023-03-20T21:28:12.804Z,10.84
2023-03-20T21:30:54.431Z,10.80
2023-03-20T21:33:35.782Z,10.80
2023-03-20T21:36:04.330Z,10.79
2023-03-20T21:41:23.606Z,10.78
2023-03-20T21:43:51.530Z,10.76
2023-03-20T21:46:52.475Z,10.74
2023-03-20T21:55:25.082Z,10.69
2023-03-20T21:58:17.598Z,10.69
2023-03-20T22:03:38.646Z,10.66
2023-03-20T22:09:48.521Z,10.65
2023-03-20T22:12:47.963Z,10.65
2023-03-20T22:17:59.602Z,10.66
2023-03-20T22:29:32.644Z,10.62
2023-03-20T22:35:15.766Z,10.59
2023-03-20T22:38:24.047Z,10.53
2023-03-20T22:41:07.023Z,10.44
2023-03-20T22:44:17.503Z,10.35
2023-03-20T22:46:22.743Z,10.33
2023-03-20T22:48:50.621Z,10.31
2023-03-20T22:51:22.652Z,10.30
2023-03-20T22:53:59.288Z,10.30
2023-03-20T22:56:27.245Z,10.30
